Time;durP1;ratioP1;P1;durP2;ratioP2;P2;SDS_P1;SDS_P2;PMS_P1;PMS_P2;Temp;Humidity;BMP_temperature;BMP_pressure;BME280_temperature;BME280_humidity;BME280_pressure;Samples;Min_cycle;Max_cycle;Signal;HPM_P1;HPM_P2
2023/03/31 03:44:34;;;;;;;5.10;3.87;;;;;;;8.61;100.00;99959.41;5484009;28;20109;-86
2023/03/31 03:47:37;;;;;;;7.00;4.30;;;;;;;8.68;100.00;99955.00;5307706;33;33758;-86
2023/03/31 03:50:40;;;;;;;6.37;4.20;;;;;;;8.52;100.00;99960.47;5308897;33;33886;-86
2023/03/31 03:53:43;;;;;;;6.87;4.20;;;;;;;8.39;100.00;99952.97;5296785;33;34146;-88
2023/03/31 03:56:45;;;;;;;7.75;4.30;;;;;;;8.26;100.00;99968.75;5297670;33;34053;-88
2023/03/31 03:59:48;;;;;;;4.78;3.60;;;;;;;8.06;100.00;99971.00;5297046;33;33916;-88
2023/03/31 04:02:51;;;;;;;7.28;4.00;;;;;;;8.08;100.00;99974.34;5296776;33;33907;-88
2023/03/31 04:05:54;;;;;;;5.82;4.00;;;;;;;7.98;100.00;99971.00;5308857;33;34638;-88
2023/03/31 04:08:57;;;;;;;6.18;3.50;;;;;;;7.85;100.00;99977.72;5308730;33;34706;-88
2023/03/31 04:12:00;;;;;;;5.47;3.50;;;;;;;7.91;100.00;99971.69;5307768;33;34001;-87
2023/03/31 04:15:04;;;;;;;6.47;3.87;;;;;;;7.97;100.00;99966.66;5307994;33;34020;-87
2023/03/31 04:18:09;;;;;;;6.18;4.50;;;;;;;7.87;100.00;99961.50;5309100;33;34304;-87
2023/03/31 04:21:21;;;;;;;7.47;4.20;;;;;;;7.81;100.00;99957.66;5310761;33;34622;-91
2023/03/31 04:24:29;;;;;;;7.05;3.95;;;;;;;7.69;100.00;99956.31;5309812;33;34424;-88
2023/03/31 04:27:33;;;;;;;5.78;3.80;;;;;;;7.63;100.00;99946.28;5308738;33;34074;-88
2023/03/31 04:30:38;;;;;;;4.68;3.90;;;;;;;7.63;100.00;99954.31;5295882;33;33836;-87
2023/03/31 04:33:44;;;;;;;5.53;3.80;;;;;;;7.63;100.00;99957.81;5297280;33;33707;-87
2023/03/31 04:36:47;;;;;;;12.15;5.15;;;;;;;7.52;100.00;99951.97;5310028;33;34697;-87
2023/03/31 04:39:53;;;;;;;5.45;4.25;;;;;;;7.48;100.00;99946.94;5308579;33;33889;-87
2023/03/31 04:42:56;;;;;;;6.78;4.12;;;;;;;7.46;100.00;99940.94;5296191;33;34016;-87
2023/03/31 04:45:59;;;;;;;4.03;3.55;;;;;;;7.47;100.00;99944.47;5293052;33;34030;-87
2023/03/31 04:49:02;;;;;;;6.30;4.20;;;;;;;7.42;100.00;99938.75;5279152;33;34730;-87
2023/03/31 04:52:05;;;;;;;7.03;4.82;;;;;;;7.50;100.00;99939.59;5279192;33;34133;-88
2023/03/31 04:55:10;;;;;;;5.97;4.35;;;;;;;7.50;100.00;99938.75;5279463;33;34505;-87
2023/03/31 04:58:13;;;;;;;6.55;3.87;;;;;;;7.61;100.00;99945.63;5279212;33;34163;-87
2023/03/31 05:01:18;;;;;;;9.25;4.05;;;;;;;7.72;100.00;99946.09;5290315;33;33859;-87
2023/03/31 05:04:22;;;;;;;8.27;3.70;;;;;;;7.87;100.00;99937.38;5279550;33;33779;-87
2023/03/31 05:07:25;;;;;;;5.62;3.78;;;;;;;8.12;100.00;99930.09;5290775;33;33903;-87
2023/03/31 05:10:29;;;;;;;4.60;3.45;;;;;;;8.23;100.00;99929.72;5290375;33;35017;-87
2023/03/31 05:13:32;;;;;;;4.85;4.03;;;;;;;8.27;100.00;99925.66;5291216;33;33539;-87
2023/03/31 05:16:35;;;;;;;6.40;3.78;;;;;;;8.42;100.00;99922.28;5302482;33;34061;-87
2023/03/31 05:19:38;;;;;;;5.65;3.87;;;;;;;8.57;100.00;99924.06;5290926;33;35239;-87
2023/03/31 05:22:41;;;;;;;4.90;3.75;;;;;;;8.75;100.00;99921.09;5293989;33;33865;-87
2023/03/31 05:25:46;;;;;;;8.00;3.78;;;;;;;8.89;100.00;99919.47;5294193;33;35601;-88
2023/03/31 05:28:49;;;;;;;7.12;3.20;;;;;;;9.10;100.00;99918.84;5291260;33;33980;-87
2023/03/31 05:31:52;;;;;;;4.95;3.53;;;;;;;9.26;100.00;99916.03;5291601;33;34020;-87
2023/03/31 05:34:56;;;;;;;4.28;3.50;;;;;;;9.48;100.00;99913.50;5282965;33;33990;-87
2023/03/31 05:37:59;;;;;;;4.12;3.58;;;;;;;9.72;100.00;99915.94;5287332;33;35436;-87
2023/03/31 05:41:02;;;;;;;4.68;3.72;;;;;;;9.97;100.00;99921.03;5290564;33;35083;-87
2023/03/31 05:44:05;;;;;;;7.12;4.05;;;;;;;10.27;100.00;99921.09;5278083;33;34071;-87
2023/03/31 05:47:08;;;;;;;8.73;3.87;;;;;;;10.55;100.00;99918.53;5291224;33;33978;-88
2023/03/31 05:50:11;;;;;;;6.35;4.43;;;;;;;10.74;100.00;99919.78;5290145;33;34433;-88
2023/03/31 05:53:16;;;;;;;4.97;3.92;;;;;;;11.07;100.00;99917.44;5267786;33;34872;-87
2023/03/31 05:56:19;;;;;;;7.37;4.00;;;;;;;11.37;100.00;99912.72;5278618;33;33902;-88
2023/03/31 05:59:21;;;;;;;6.72;3.47;;;;;;;11.66;100.00;99913.56;5280148;33;34051;-88
2023/03/31 06:02:25;;;;;;;5.82;4.57;;;;;;;12.02;100.00;99902.63;5266557;33;34133;-87
2023/03/31 06:05:30;;;;;;;3.67;3.20;;;;;;;12.28;100.00;99901.94;5284872;33;33650;-88
2023/03/31 06:08:34;;;;;;;5.68;3.12;;;;;;;12.31;100.00;99898.00;5290733;33;34637;-88
2023/03/31 06:11:37;;;;;;;5.45;3.22;;;;;;;12.52;100.00;99897.91;5283338;33;33553;-88
2023/03/31 06:14:40;;;;;;;4.47;3.33;;;;;;;12.39;100.00;99895.97;5289688;33;34255;-87
2023/03/31 06:17:43;;;;;;;4.78;3.40;;;;;;;12.54;100.00;99901.22;5291905;33;34040;-91
2023/03/31 06:20:46;;;;;;;6.00;3.40;;;;;;;12.66;100.00;99906.88;5265510;33;34385;-92
2023/03/31 06:23:49;;;;;;;6.53;3.80;;;;;;;12.66;100.00;99902.28;5284592;33;34375;-92
2023/03/31 06:26:51;;;;;;;3.72;3.33;;;;;;;12.84;100.00;99896.34;5275911;33;35387;-90
2023/03/31 06:29:55;;;;;;;6.97;3.33;;;;;;;12.90;100.00;99902.78;5278317;33;34687;-88
2023/03/31 06:32:58;;;;;;;4.30;3.28;;;;;;;12.87;100.00;99897.75;5289473;33;33728;-89
2023/03/31 06:36:04;;;;;;;4.28;3.62;;;;;;;13.00;100.00;99903.22;5290506;33;34455;-88
2023/03/31 06:39:07;;;;;;;4.75;3.42;;;;;;;13.13;100.00;99902.37;5278916;33;34090;-88
2023/03/31 06:42:10;;;;;;;5.97;2.95;;;;;;;13.24;100.00;99890.97;5289596;33;34012;-88
2023/03/31 06:45:15;;;;;;;5.80;3.53;;;;;;;13.44;100.00;99895.59;5290961;33;34422;-88
2023/03/31 06:48:18;;;;;;;6.47;3.45;;;;;;;13.48;98.85;99902.22;5290814;33;33756;-88
2023/03/31 06:51:21;;;;;;;7.15;3.55;;;;;;;13.57;95.95;99892.84;5289815;33;34152;-88
2023/03/31 06:54:24;;;;;;;4.78;3.50;;;;;;;13.65;97.04;99889.94;5289876;33;35052;-88
2023/03/31 06:57:27;;;;;;;5.43;3.25;;;;;;;13.82;99.08;99887.63;5288938;33;34204;-88
2023/03/31 07:00:32;;;;;;;5.37;3.90;;;;;;;13.77;96.09;99893.66;5290589;33;34180;-88
2023/03/31 07:03:35;;;;;;;6.47;3.70;;;;;;;13.97;95.91;99890.09;5286849;33;34197;-88
2023/03/31 07:06:38;;;;;;;3.62;2.95;;;;;;;14.07;95.95;99890.50;5291487;33;33604;-88
2023/03/31 07:09:41;;;;;;;4.85;3.05;;;;;;;14.33;92.59;99883.31;5280127;33;33972;-88
2023/03/31 07:12:45;;;;;;;5.37;3.12;;;;;;;14.37;91.82;99885.41;5293448;33;33956;-88
2023/03/31 07:15:48;;;;;;;4.47;3.20;;;;;;;14.42;88.98;99890.16;5293247;33;33862;-88
2023/03/31 07:18:53;;;;;;;3.25;2.80;;;;;;;14.47;90.39;99890.34;5285800;33;34232;-88
2023/03/31 07:21:56;;;;;;;7.93;3.40;;;;;;;14.63;87.65;99889.06;5292307;33;35416;-88
2023/03/31 07:24:59;;;;;;;4.87;2.50;;;;;;;14.71;87.27;99886.94;5293889;33;33697;-88
2023/03/31 07:28:04;;;;;;;3.00;2.70;;;;;;;15.04;85.35;99885.06;5281118;33;34644;-88
2023/03/31 07:31:12;;;;;;;4.22;2.90;;;;;;;15.41;87.20;99877.88;5289833;33;34139;-88
2023/03/31 07:34:15;;;;;;;8.48;3.35;;;;;;;15.59;82.93;99877.09;5265081;33;34354;-89
2023/03/31 07:37:18;;;;;;;8.73;4.80;;;;;;;15.67;84.15;99874.09;5281802;33;34456;-88
2023/03/31 07:40:26;;;;;;;12.32;6.25;;;;;;;15.69;85.52;99873.91;5295279;33;34333;-86
2023/03/31 07:43:34;;;;;;;12.70;6.07;;;;;;;15.73;86.65;99867.81;5287795;33;35867;-88
2023/03/31 07:46:38;;;;;;;11.02;6.12;;;;;;;15.77;88.73;99863.59;5274682;33;33202;-87
2023/03/31 07:49:41;;;;;;;8.05;5.95;;;;;;;15.60;88.64;99863.31;5292098;33;34627;-89
2023/03/31 07:52:46;;;;;;;10.77;6.25;;;;;;;15.33;90.45;99854.59;5322715;28;33551;-87
2023/03/31 07:55:49;;;;;;;14.57;5.87;;;;;;;15.46;90.01;99844.66;5290939;33;33716;-85
2023/03/31 07:58:52;;;;;;;10.48;5.18;;;;;;;15.54;91.94;99842.50;5280813;33;34751;-86
2023/03/31 08:01:59;;;;;;;9.95;5.05;;;;;;;15.85;89.56;99844.31;5285783;33;34386;-85
2023/03/31 08:05:04;;;;;;;12.93;5.62;;;;;;;15.68;89.62;99839.66;5286143;33;34090;-83
2023/03/31 08:08:07;;;;;;;9.15;5.40;;;;;;;16.01;89.63;99833.91;5291796;33;33844;-83
2023/03/31 08:11:10;;;;;;;10.02;5.28;;;;;;;15.99;90.05;99844.97;5283806;33;35023;-86
2023/03/31 08:14:12;;;;;;;6.65;5.25;;;;;;;16.13;90.18;99833.97;5290268;33;34323;-84
2023/03/31 08:17:15;;;;;;;7.18;4.87;;;;;;;16.20;87.73;99834.72;5286771;33;34573;-88
2023/03/31 08:20:18;;;;;;;6.28;4.90;;;;;;;16.21;87.53;99820.91;5285195;33;35319;-88
2023/03/31 08:23:21;;;;;;;8.35;5.15;;;;;;;16.04;86.56;99817.16;5276836;33;34117;-89
2023/03/31 08:26:24;;;;;;;9.30;4.80;;;;;;;15.58;89.26;99822.00;5290074;33;34171;-89
2023/03/31 08:29:27;;;;;;;9.63;5.32;;;;;;;15.62;89.64;99814.25;5289875;33;34164;-85
2023/03/31 08:32:31;;;;;;;8.05;5.40;;;;;;;15.57;92.64;99811.37;5277997;33;33791;-85
2023/03/31 08:35:35;;;;;;;9.68;5.18;;;;;;;15.65;93.72;99808.38;5288932;33;33985;-85
2023/03/31 08:38:45;;;;;;;7.60;5.20;;;;;;;15.81;90.70;99793.41;5275413;33;32164;-85
2023/03/31 08:41:57;;;;;;;7.53;5.05;;;;;;;15.56;90.42;99790.72;5288237;33;33884;-85
2023/03/31 08:45:11;;;;;;;9.38;4.95;;;;;;;15.37;92.76;99784.44;5289762;33;33911;-85
2023/03/31 08:48:44;;;;;;;6.47;4.65;;;;;;;15.51;91.96;99774.31;5291450;33;33813;-84
2023/03/31 08:52:03;;;;;;;7.03;4.82;;;;;;;15.73;89.52;99769.28;5286847;33;32077;-85
2023/03/31 08:55:12;;;;;;;8.20;4.85;;;;;;;15.82;91.93;99766.06;5285018;33;33865;-85
2023/03/31 08:58:42;;;;;;;7.50;4.70;;;;;;;15.87;91.07;99759.94;5283939;33;34182;-84
2023/03/31 09:01:59;;;;;;;6.62;5.32;;;;;;;15.57;90.67;99749.81;5271911;33;34184;-85
2023/03/31 09:05:10;;;;;;;5.00;4.50;;;;;;;15.40;90.11;99740.59;5271756;33;34978;-85
2023/03/31 09:08:35;;;;;;;6.62;4.50;;;;;;;15.29;90.58;99735.91;5271341;33;33810;-85
2023/03/31 09:11:49;;;;;;;11.48;4.47;;;;;;;15.83;90.33;99737.84;5270846;33;33558;-85
2023/03/31 09:15:10;;;;;;;6.43;4.35;;;;;;;16.08;88.49;99726.03;5271959;33;33841;-85
2023/03/31 09:18:32;;;;;;;6.25;4.00;;;;;;;16.10;87.12;99722.03;5271779;33;33874;-85
2023/03/31 09:21:40;;;;;;;7.87;4.30;;;;;;;16.07;85.13;99714.34;5271602;33;33666;-85
2023/03/31 09:25:00;;;;;;;4.50;4.03;;;;;;;16.12;85.58;99712.81;5271674;33;33821;-84
2023/03/31 09:28:12;;;;;;;5.18;3.47;;;;;;;16.23;86.95;99704.72;5282374;33;33857;-84
2023/03/31 09:31:18;;;;;;;5.97;3.90;;;;;;;16.33;83.93;99704.16;5272054;33;33964;-84
2023/03/31 09:34:30;;;;;;;4.25;3.42;;;;;;;16.45;84.56;99707.72;5271505;33;34065;-84
2023/03/31 09:37:33;;;;;;;5.00;3.62;;;;;;;16.77;84.59;99700.12;5270737;33;34151;-84
2023/03/31 09:40:37;;;;;;;4.62;3.80;;;;;;;17.02;82.96;99692.81;5262706;33;33642;-84
2023/03/31 09:43:40;;;;;;;5.18;4.00;;;;;;;16.80;85.39;99692.56;5271000;33;35237;-85
2023/03/31 09:46:43;;;;;;;4.12;3.72;;;;;;;16.57;83.79;99688.72;5270239;33;33949;-85
2023/03/31 09:49:46;;;;;;;5.25;3.45;;;;;;;16.59;86.26;99685.78;5259120;33;34747;-85
2023/03/31 09:52:59;;;;;;;4.32;3.50;;;;;;;16.75;88.55;99682.38;5281702;33;33439;-88
2023/03/31 09:56:07;;;;;;;5.35;3.50;;;;;;;17.08;85.60;99680.97;5252330;33;274542;-90
2023/03/31 09:59:19;;;;;;;4.65;3.55;;;;;;;17.26;84.10;99672.69;5272531;33;34707;-85
2023/03/31 10:02:36;;;;;;;5.57;3.53;;;;;;;16.95;81.65;99673.91;5271599;33;33913;-85
2023/03/31 10:05:54;;;;;;;4.47;3.40;;;;;;;17.02;84.63;99663.72;5271127;33;34658;-84
2023/03/31 10:09:00;;;;;;;4.65;3.28;;;;;;;17.12;83.63;99658.50;5273226;33;34257;-85
2023/03/31 10:12:19;;;;;;;3.92;3.53;;;;;;;17.21;79.73;99640.75;5272735;33;33979;-85
2023/03/31 10:15:28;;;;;;;4.57;3.30;;;;;;;17.18;80.43;99640.41;5272230;33;33174;-84
2023/03/31 10:18:42;;;;;;;5.10;2.90;;;;;;;17.38;79.58;99635.41;5271678;33;33905;-86
2023/03/31 10:21:47;;;;;;;4.18;2.70;;;;;;;17.68;76.68;99628.91;5271489;33;32505;-85
2023/03/31 10:24:51;;;;;;;4.12;2.80;;;;;;;17.95;75.39;99629.16;5255445;33;34930;-85
2023/03/31 10:27:55;;;;;;;3.62;3.08;;;;;;;18.15;75.61;99619.72;5272504;33;33641;-86
2023/03/31 10:31:00;;;;;;;4.20;2.60;;;;;;;17.90;75.53;99624.47;5265329;33;35241;-85
2023/03/31 10:34:11;;;;;;;4.35;2.75;;;;;;;18.12;75.59;99621.84;5294752;33;33969;-86
2023/03/31 10:37:21;;;;;;;3.15;2.80;;;;;;;18.31;72.43;99611.56;5284297;33;34298;-86
2023/03/31 10:40:25;;;;;;;;;;;;;;;18.34;71.40;99602.88;5277853;33;33674;-85
2023/03/31 10:43:48;;;;;;;4.87;2.90;;;;;;;18.17;71.52;99610.22;5270441;33;34451;-85
2023/03/31 10:46:51;;;;;;;5.47;2.75;;;;;;;18.22;75.76;99604.87;5273043;33;33715;-90
2023/03/31 10:49:56;;;;;;;5.25;2.47;;;;;;;18.34;72.89;99596.63;5272832;33;34061;-86
2023/03/31 10:53:06;;;;;;;3.22;2.25;;;;;;;18.53;68.78;99603.44;5274137;33;33714;-86
2023/03/31 10:56:18;;;;;;;3.30;2.40;;;;;;;18.59;67.55;99604.34;5273096;33;34886;-86
2023/03/31 10:59:32;;;;;;;3.58;2.60;;;;;;;18.71;63.48;99596.87;5274168;33;33998;-85
2023/03/31 11:03:29;;;;;;;8.00;2.60;;;;;;;18.63;65.31;99594.59;5283457;33;34239;-86
2023/03/31 11:06:54;;;;;;;5.90;3.10;;;;;;;19.12;66.67;99577.56;5200632;34;33949;-85
2023/03/31 11:10:21;;;;;;;3.62;3.33;;;;;;;19.58;66.42;99576.19;5227291;33;33959;-86
2023/03/31 11:14:05;;;;;;;3.65;2.78;;;;;;;20.37;66.14;99582.97;5263827;33;34467;-84
2023/03/31 11:17:20;;;;;;;3.33;2.90;;;;;;;21.20;60.04;99571.44;5245432;33;33915;-86
2023/03/31 11:20:35;;;;;;;4.75;2.70;;;;;;;20.62;58.69;99568.66;5273589;33;34848;-87
2023/03/31 11:23:49;;;;;;;6.55;3.12;;;;;;;19.81;61.89;99571.56;5273754;33;34532;-86
2023/03/31 11:27:06;;;;;;;3.20;2.90;;;;;;;20.05;62.31;99559.19;5273221;33;32538;-86
2023/03/31 11:30:50;;;;;;;4.00;2.62;;;;;;;20.20;62.58;99553.03;5272974;33;35086;-87
2023/03/31 11:34:30;;;;;;;3.55;2.58;;;;;;;19.83;62.13;99539.31;5243907;33;32402;-86
2023/03/31 11:37:56;;;;;;;5.28;3.03;;;;;;;20.62;62.94;99524.91;5272267;33;34863;-90
2023/03/31 11:41:12;;;;;;;3.60;2.40;;;;;;;20.89;60.75;99508.38;5273421;33;34089;-86
2023/03/31 11:44:18;;;;;;;2.87;2.42;;;;;;;20.29;64.46;99496.78;5272355;33;34900;-86
2023/03/31 11:47:25;;;;;;;2.87;2.60;;;;;;;20.17;64.41;99483.31;5271725;33;33837;-84
2023/03/31 11:50:37;;;;;;;3.87;2.80;;;;;;;20.13;62.93;99473.19;5273464;33;33913;-84
2023/03/31 11:53:44;;;;;;;3.62;2.80;;;;;;;19.84;62.91;99461.78;5272028;33;33775;-85
2023/03/31 11:56:48;;;;;;;5.03;2.58;;;;;;;20.35;62.44;99456.62;5273577;33;34034;-85
2023/03/31 11:59:59;;;;;;;3.70;2.53;;;;;;;22.28;59.75;99460.91;5273896;33;35340;-86
2023/03/31 12:03:21;;;;;;;4.53;2.28;;;;;;;23.41;47.94;99455.78;5274368;33;34172;-86
2023/03/31 12:06:29;;;;;;;5.28;2.12;;;;;;;23.51;46.86;99438.38;5282913;33;34702;-86
2023/03/31 12:09:51;;;;;;;2.55;2.30;;;;;;;22.26;46.70;99443.06;5283971;33;34192;-86
2023/03/31 12:13:01;;;;;;;3.37;2.60;;;;;;;21.55;51.24;99431.06;5273757;33;34011;-86
2023/03/31 12:16:05;;;;;;;5.78;2.42;;;;;;;21.05;53.17;99427.13;5263560;33;35425;-86
2023/03/31 12:19:29;;;;;;;4.25;2.20;;;;;;;21.29;53.04;99432.94;5272976;33;35365;-87
2023/03/31 12:22:37;;;;;;;3.35;2.00;;;;;;;21.51;52.79;99430.78;5272205;33;34417;-91
2023/03/31 12:25:53;;;;;;;2.35;1.98;;;;;;;21.25;52.48;99429.09;5270703;33;33677;-87
2023/03/31 12:29:03;;;;;;;3.87;2.33;;;;;;;21.82;52.69;99419.84;5272161;33;33967;-86
2023/03/31 12:32:13;;;;;;;4.32;2.37;;;;;;;21.60;50.41;99413.81;5272244;33;34093;-86
2023/03/31 12:35:26;;;;;;;4.35;2.28;;;;;;;21.10;52.42;99412.66;5271846;33;33630;-86
2023/03/31 12:38:51;;;;;;;6.78;2.47;;;;;;;20.81;54.60;99404.91;5272535;33;34784;-86
2023/03/31 12:42:23;;;;;;;3.67;2.37;;;;;;;19.97;56.28;99397.66;5272953;33;34158;-86
2023/03/31 12:45:38;;;;;;;3.92;2.40;;;;;;;20.06;52.83;99390.59;5272808;33;34158;-86
2023/03/31 12:48:59;;;;;;;2.90;2.58;;;;;;;22.70;48.16;99384.75;5275526;33;34262;-86
2023/03/31 12:52:11;;;;;;;2.70;2.12;;;;;;;25.10;43.43;99379.72;5273888;33;34238;-86
2023/03/31 12:55:37;;;;;;;2.75;2.10;;;;;;;25.86;42.22;99372.19;5271629;33;33973;-89
2023/03/31 12:58:42;;;;;;;3.33;2.10;;;;;;;27.61;38.63;99360.94;5272744;33;34585;-86
2023/03/31 13:02:16;;;;;;;2.05;1.62;;;;;;;29.22;33.22;99352.19;5272968;33;33619;-86
2023/03/31 13:05:37;;;;;;;4.62;2.22;;;;;;;30.68;30.22;99349.25;5273785;33;33672;-86
2023/03/31 13:09:03;;;;;;;3.50;1.90;;;;;;;30.18;29.81;99347.22;5274331;33;33819;-87
2023/03/31 13:12:17;;;;;;;3.25;2.33;;;;;;;28.27;33.64;99348.09;5273324;33;33934;-86
2023/03/31 13:15:22;;;;;;;2.25;1.98;;;;;;;24.90;40.03;99350.56;5273274;33;34025;-86
2023/03/31 13:18:27;;;;;;;4.43;2.25;;;;;;;24.80;39.84;99339.66;5284187;33;34714;-86
2023/03/31 13:21:30;;;;;;;2.15;1.95;;;;;;;27.67;35.46;99313.50;5273395;33;35381;-87
2023/03/31 13:24:34;;;;;;;5.55;2.40;;;;;;;29.25;32.39;99305.22;5284090;33;34490;-86
2023/03/31 13:27:47;;;;;;;5.97;2.40;;;;;;;29.48;32.17;99303.03;5272236;33;34939;-87
2023/03/31 13:31:00;;;;;;;2.30;2.10;;;;;;;28.10;34.95;99289.91;5254802;33;33836;-87
2023/03/31 13:34:03;;;;;;;7.28;2.47;;;;;;;25.40;38.78;99292.22;5273714;33;33986;-86
2023/03/31 13:37:15;;;;;;;4.45;2.33;;;;;;;23.74;43.67;99283.75;5273516;33;35459;-90
2023/03/31 13:40:27;;;;;;;4.15;2.37;;;;;;;22.39;45.76;99283.44;5272688;33;34397;-87
2023/03/31 13:43:56;;;;;;;5.22;2.45;;;;;;;21.77;47.16;99279.31;5271919;33;34807;-87
2023/03/31 13:47:25;;;;;;;5.87;2.03;;;;;;;20.99;48.99;99255.81;5265551;33;33682;-86
2023/03/31 13:50:34;;;;;;;5.17;2.17;;;;;;;20.70;48.42;99266.47;5271782;33;33913;-86
2023/03/31 13:54:09;;;;;;;2.45;1.90;;;;;;;20.08;50.04;99249.09;5272312;33;35312;-87
2023/03/31 13:57:25;;;;;;;4.43;2.20;;;;;;;19.74;53.96;99254.13;5272236;33;34558;-86
2023/03/31 14:00:31;;;;;;;2.80;2.10;;;;;;;19.38;53.85;99243.78;5272894;33;33725;-86
2023/03/31 14:03:47;;;;;;;2.85;2.10;;;;;;;19.31;53.26;99237.75;5272689;33;34086;-86
2023/03/31 14:07:19;;;;;;;2.85;2.12;;;;;;;19.15;54.23;99230.53;5276316;33;34518;-86
2023/03/31 14:10:35;;;;;;;2.58;2.03;;;;;;;19.82;53.47;99234.50;5281676;33;34476;-86
2023/03/31 14:13:38;;;;;;;4.40;1.95;;;;;;;19.90;51.20;99236.72;5281680;33;33949;-86
2023/03/31 14:16:52;;;;;;;3.85;2.08;;;;;;;19.84;49.18;99222.22;5281340;33;34276;-86
2023/03/31 14:19:55;;;;;;;5.20;2.40;;;;;;;19.58;50.81;99218.53;5282412;33;34709;-86
2023/03/31 14:23:19;;;;;;;6.37;2.45;;;;;;;19.11;53.04;99210.34;5287230;33;35441;-86
2023/03/31 14:27:01;;;;;;;3.78;2.15;;;;;;;19.14;52.59;99201.63;5281486;33;34319;-86
2023/03/31 14:30:29;;;;;;;2.15;1.95;;;;;;;20.84;48.32;99180.88;5272555;33;33971;-86
2023/03/31 14:33:41;;;;;;;4.07;1.92;;;;;;;23.62;41.92;99162.41;5271629;33;33915;-86
2023/03/31 14:37:00;;;;;;;3.85;1.73;;;;;;;24.40;39.25;99149.28;5272492;33;33910;-86
2023/03/31 14:40:03;;;;;;;2.42;1.80;;;;;;;24.55;38.25;99159.25;5273169;33;34856;-90
2023/03/31 14:43:17;;;;;;;3.50;2.00;;;;;;;23.91;39.84;99161.53;5260627;33;34210;-87
2023/03/31 14:46:20;;;;;;;3.78;2.10;;;;;;;23.03;39.18;99155.41;5272971;33;34350;-87
2023/03/31 14:49:26;;;;;;;3.00;1.83;;;;;;;22.18;41.04;99151.12;5271122;33;33580;-87
2023/03/31 14:52:31;;;;;;;2.60;1.90;;;;;;;21.12;42.57;99139.50;5274594;33;35234;-87
2023/03/31 14:55:34;;;;;;;3.92;2.20;;;;;;;20.42;46.37;99129.16;5273543;33;35039;-87
2023/03/31 14:58:50;;;;;;;6.22;2.30;;;;;;;19.87;48.39;99138.94;5270111;33;34863;-86
2023/03/31 15:01:57;;;;;;;3.60;2.20;;;;;;;19.60;49.01;99142.63;5271831;33;33546;-86
2023/03/31 15:05:09;;;;;;;4.57;2.40;;;;;;;19.10;51.12;99133.13;5273806;33;33730;-86
2023/03/31 15:08:21;;;;;;;7.00;2.67;;;;;;;18.51;51.70;99138.66;5277489;33;33870;-86
2023/03/31 15:11:26;;;;;;;3.60;2.30;;;;;;;18.20;53.69;99143.06;5271247;33;34740;-87
2023/03/31 15:14:44;;;;;;;5.22;2.78;;;;;;;18.03;56.34;99148.59;5270018;33;34581;-86
2023/03/31 15:17:47;;;;;;;3.45;2.40;;;;;;;17.94;57.23;99129.16;5271944;33;33524;-86
2023/03/31 15:20:50;;;;;;;5.93;2.65;;;;;;;17.89;58.02;99134.56;5274058;33;34291;-86
2023/03/31 15:23:57;;;;;;;3.00;2.50;;;;;;;17.94;58.42;99133.81;5260171;33;34148;-86
2023/03/31 15:27:14;;;;;;;5.72;2.40;;;;;;;17.84;56.09;99127.19;5271268;33;34033;-86
2023/03/31 15:30:27;;;;;;;5.82;2.20;;;;;;;17.72;56.04;99136.50;5272952;33;33781;-85
2023/03/31 15:33:39;;;;;;;3.28;2.30;;;;;;;17.59;55.82;99124.94;5272366;33;33477;-86
2023/03/31 15:36:43;;;;;;;4.00;2.55;;;;;;;17.39;56.47;99121.97;5273738;33;34203;-90
2023/03/31 15:39:47;;;;;;;4.10;2.28;;;;;;;17.28;56.09;99110.13;5273326;33;34025;-90
2023/03/31 15:43:02;;;;;;;3.20;2.30;;;;;;;17.26;55.58;99104.16;5270867;33;33984;-89
2023/03/31 15:46:23;;;;;;;2.92;2.50;;;;;;;17.19;57.03;99092.63;5289933;33;35338;-87
2023/03/31 15:49:28;;;;;;;7.37;2.17;;;;;;;17.02;59.75;99098.09;5279104;33;35409;-86
2023/03/31 15:52:37;;;;;;;2.45;2.15;;;;;;;16.90;59.29;99095.50;5273526;33;33938;-86
